createdAt,value
2023-03-15T00:02:07.560Z,100204.03
2023-03-15T00:04:37.174Z,100206.94
2023-03-15T00:07:04.897Z,100216.72
2023-03-15T00:09:32.632Z,100224.28
2023-03-15T00:12:00.349Z,100224.75
2023-03-15T00:14:29.561Z,100197.00
2023-03-15T00:16:57.244Z,100230.16
2023-03-15T00:19:25.062Z,100230.25
2023-03-15T00:21:52.759Z,100232.53
2023-03-15T00:24:20.958Z,100247.78
2023-03-15T00:26:48.739Z,100228.38
2023-03-15T00:29:16.462Z,100230.91
2023-03-15T00:31:45.871Z,100230.47
2023-03-15T00:34:13.995Z,100218.75
2023-03-15T00:36:43.565Z,100204.28
2023-03-15T00:39:11.325Z,100239.19
2023-03-15T00:41:39.077Z,100209.00
2023-03-15T00:44:06.813Z,100225.59
2023-03-15T00:46:34.651Z,100231.00
2023-03-15T00:49:03.849Z,100212.88
2023-03-15T00:51:31.901Z,100203.34
2023-03-15T00:53:59.913Z,100223.94
2023-03-15T00:56:30.705Z,100227.06
2023-03-15T00:58:58.578Z,100226.72
2023-03-15T01:01:29.183Z,100237.69
2023-03-15T01:03:57.998Z,100238.31
2023-03-15T01:06:28.841Z,100237.91
2023-03-15T01:08:57.238Z,100210.53
2023-03-15T01:11:27.635Z,100211.81
2023-03-15T01:13:56.760Z,100243.72
2023-03-15T01:16:24.875Z,100227.13
2023-03-15T01:18:53.140Z,100208.63
2023-03-15T01:21:22.507Z,100193.84
2023-03-15T01:23:52.009Z,100195.22
2023-03-15T01:26:20.016Z,100176.66
2023-03-15T01:28:48.069Z,100193.38
2023-03-15T01:31:19.505Z,100209.47
2023-03-15T01:33:47.361Z,100204.75
2023-03-15T01:36:15.688Z,100233.84
2023-03-15T01:38:44.178Z,100255.16
2023-03-15T01:41:15.152Z,100254.53
2023-03-15T01:43:47.204Z,100253.34
2023-03-15T01:46:24.764Z,100245.22
2023-03-15T01:48:58.120Z,100248.16
2023-03-15T01:51:31.183Z,100248.41
2023-03-15T01:54:02.939Z,100222.19
2023-03-15T01:56:33.876Z,100253.69
2023-03-15T01:59:04.821Z,100234.91
2023-03-15T02:01:36.880Z,100241.34
2023-03-15T02:04:09.075Z,100247.28
2023-03-15T02:06:37.380Z,100248.41
2023-03-15T02:09:09.958Z,100259.41
2023-03-15T02:11:39.148Z,100271.63
2023-03-15T02:14:07.761Z,100265.19
2023-03-15T02:16:35.594Z,100264.41
2023-03-15T02:19:03.375Z,100241.50
2023-03-15T02:21:43.375Z,100240.38
2023-03-15T02:24:27.392Z,100245.13
2023-03-15T02:26:58.307Z,100243.06
2023-03-15T02:29:29.633Z,100247.31
2023-03-15T02:31:59.280Z,100231.47
2023-03-15T02:34:27.385Z,100239.72
2023-03-15T02:36:55.700Z,100215.47
2023-03-15T02:39:23.799Z,100217.22
2023-03-15T02:41:54.518Z,100215.31
2023-03-15T02:44:27.954Z,100208.91
2023-03-15T02:47:01.333Z,100222.97
2023-03-15T02:49:34.029Z,100227.09
2023-03-15T02:52:01.739Z,100214.63
2023-03-15T02:54:29.524Z,100217.84
2023-03-15T02:56:57.254Z,100226.91
2023-03-15T02:59:24.937Z,100196.94
2023-03-15T03:01:52.649Z,100197.88
2023-03-15T03:04:22.371Z,100212.72
2023-03-15T03:06:50.089Z,100212.06
2023-03-15T03:09:17.845Z,100195.78
2023-03-15T03:11:45.893Z,100184.22
2023-03-15T03:14:14.651Z,100194.50
2023-03-15T03:16:42.771Z,100180.00
2023-03-15T03:19:12.509Z,100209.16
2023-03-15T03:21:43.220Z,100238.13
2023-03-15T03:24:11.414Z,100232.47
2023-03-15T03:26:39.163Z,100221.25
2023-03-15T03:29:06.882Z,100233.66
2023-03-15T03:31:34.714Z,100239.28
2023-03-15T03:34:02.443Z,100254.44
2023-03-15T03:36:30.169Z,100258.31
2023-03-15T03:38:59.410Z,100284.56
2023-03-15T03:41:27.108Z,100277.75
2023-03-15T03:43:54.882Z,100272.31
2023-03-15T03:46:22.619Z,100267.53
2023-03-15T03:48:50.534Z,100278.03
2023-03-15T03:51:18.240Z,100295.75
2023-03-15T03:53:45.981Z,100295.66
2023-03-15T03:56:15.060Z,100302.34
2023-03-15T03:58:42.783Z,100298.38
2023-03-15T04:01:11.656Z,100304.13
2023-03-15T04:03:39.401Z,100285.09
2023-03-15T04:06:07.253Z,100296.06
2023-03-15T04:08:35.027Z,100285.81
2023-03-15T04:11:04.126Z,100277.88
2023-03-15T04:13:33.316Z,100291.47
2023-03-15T04:16:02.690Z,100311.97
2023-03-15T04:18:30.498Z,100325.34
2023-03-15T04:20:58.208Z,100329.44
2023-03-15T04:23:26.011Z,100354.97
2023-03-15T04:25:55.211Z,100366.16
2023-03-15T04:28:23.815Z,100362.81
2023-03-15T04:30:58.977Z,100339.56
2023-03-15T04:33:26.871Z,100358.50
2023-03-15T04:35:54.985Z,100357.44
2023-03-15T04:38:26.584Z,100361.31
2023-03-15T04:40:55.462Z,100367.59
2023-03-15T04:43:24.310Z,100377.13
2023-03-15T04:45:53.466Z,100355.94
2023-03-15T04:48:21.188Z,100337.50
2023-03-15T04:50:48.925Z,100328.38
2023-03-15T04:53:16.636Z,100320.19
2023-03-15T04:55:44.346Z,100329.94
2023-03-15T04:58:12.055Z,100311.72
2023-03-15T05:00:39.816Z,100309.97
2023-03-15T05:03:08.920Z,100321.47
2023-03-15T05:05:37.371Z,100309.44
2023-03-15T05:08:05.412Z,100329.44
2023-03-15T05:10:33.319Z,100323.75
2023-03-15T05:13:01.068Z,100331.28
2023-03-15T05:15:28.884Z,100345.94
2023-03-15T05:17:56.705Z,100343.94
2023-03-15T05:20:26.032Z,100334.03
2023-03-15T05:22:54.221Z,100362.59
2023-03-15T05:25:22.233Z,100365.78
2023-03-15T05:27:50.088Z,100360.88
2023-03-15T05:30:18.138Z,100355.97
2023-03-15T05:32:45.875Z,100372.56
2023-03-15T05:35:14.658Z,100373.53
2023-03-15T05:37:44.001Z,100363.63
2023-03-15T05:40:12.902Z,100361.56
2023-03-15T05:42:41.199Z,100388.63
2023-03-15T05:45:09.951Z,100394.41
2023-03-15T05:47:37.706Z,100391.00
2023-03-15T05:50:06.069Z,100410.56
2023-03-15T05:52:33.764Z,100408.13
2023-03-15T05:55:02.828Z,100444.22
2023-03-15T05:57:31.376Z,100456.34
2023-03-15T05:59:59.050Z,100439.09
2023-03-15T06:02:26.756Z,100442.75
2023-03-15T06:04:54.458Z,100461.72
2023-03-15T06:07:22.420Z,100452.09
2023-03-15T06:09:50.124Z,100449.94
2023-03-15T06:12:20.016Z,100466.63
2023-03-15T06:14:47.761Z,100469.47
2023-03-15T06:17:16.275Z,100493.38
2023-03-15T06:19:43.986Z,100493.66
2023-03-15T06:22:12.022Z,100507.25
2023-03-15T06:24:39.730Z,100518.25
2023-03-15T06:27:07.501Z,100525.63
2023-03-15T06:29:36.583Z,100516.44
2023-03-15T06:32:04.536Z,100535.66
2023-03-15T06:34:32.293Z,100533.09
2023-03-15T06:37:00.023Z,100544.94
2023-03-15T06:39:27.715Z,100544.66
2023-03-15T06:41:58.394Z,100575.81
2023-03-15T06:44:26.109Z,100603.50
2023-03-15T06:46:55.296Z,100587.41
2023-03-15T06:49:22.991Z,100612.47
2023-03-15T06:51:50.743Z,100619.19
2023-03-15T06:54:18.476Z,100617.38
2023-03-15T06:56:46.217Z,100655.81
2023-03-15T06:59:14.006Z,100659.31
2023-03-15T07:01:42.111Z,100666.91
2023-03-15T07:04:11.250Z,100692.19
2023-03-15T07:06:38.972Z,100687.63
2023-03-15T07:09:07.221Z,100705.53
2023-03-15T07:11:35.143Z,100729.41
2023-03-15T07:14:02.846Z,100717.72
2023-03-15T07:16:30.828Z,100731.28
2023-03-15T07:18:59.995Z,100744.78
2023-03-15T07:21:29.734Z,100728.25
2023-03-15T07:23:57.457Z,100737.84
2023-03-15T07:26:25.178Z,100747.41
2023-03-15T07:28:53.063Z,100741.94
2023-03-15T07:31:20.884Z,100744.22
2023-03-15T07:33:48.776Z,100761.88
2023-03-15T07:36:17.837Z,100760.38
2023-03-15T07:38:46.905Z,100776.63
2023-03-15T07:41:14.923Z,100800.06
2023-03-15T07:43:42.621Z,100801.63
2023-03-15T07:46:10.484Z,100817.56
2023-03-15T07:48:38.244Z,100837.84
2023-03-15T07:51:06.788Z,100863.09
2023-03-15T07:53:34.516Z,100876.16
2023-03-15T07:56:03.683Z,100920.03
2023-03-15T07:58:31.738Z,100935.38
2023-03-15T08:00:59.477Z,100953.16
2023-03-15T08:03:27.826Z,100948.88
2023-03-15T08:05:56.569Z,100965.75
2023-03-15T08:08:24.438Z,100973.31
2023-03-15T08:10:52.187Z,100983.66
2023-03-15T08:13:21.292Z,100989.94
2023-03-15T08:15:49.321Z,101007.94
2023-03-15T08:18:17.039Z,101038.06
2023-03-15T08:20:44.784Z,101050.25
2023-03-15T08:23:16.653Z,101047.22
2023-03-15T08:25:45.927Z,101061.13
2023-03-15T08:28:13.814Z,101077.25
2023-03-15T08:30:42.912Z,101088.88
2023-03-15T08:33:12.620Z,101100.66
2023-03-15T08:35:41.357Z,101084.31
2023-03-15T08:38:09.990Z,101101.72
2023-03-15T08:40:39.840Z,101114.09
2023-03-15T08:43:07.836Z,101109.56
2023-03-15T08:45:51.055Z,101105.13
2023-03-15T08:48:27.733Z,101117.19
2023-03-15T08:50:55.512Z,101121.03
2023-03-15T08:53:23.229Z,101138.25
2023-03-15T08:55:50.966Z,101132.03
2023-03-15T08:58:18.820Z,101133.06
2023-03-15T09:00:47.211Z,101137.91
2023-03-15T09:03:16.132Z,101137.38
2023-03-15T09:05:46.533Z,101139.81
2023-03-15T09:08:14.535Z,101139.59
2023-03-15T09:10:42.276Z,101158.97
2023-03-15T09:13:09.976Z,101161.69
2023-03-15T09:15:37.702Z,101173.16
2023-03-15T09:18:05.798Z,101170.84
2023-03-15T09:20:33.776Z,101157.13
2023-03-15T09:23:02.869Z,101165.78
2023-03-15T09:25:30.775Z,101170.78
2023-03-15T09:27:58.738Z,101188.44
2023-03-15T09:30:26.767Z,101178.44
2023-03-15T09:32:54.470Z,101178.53
2023-03-15T09:35:22.909Z,101190.91
2023-03-15T09:37:51.399Z,101190.19
2023-03-15T09:40:22.897Z,101175.44
2023-03-15T09:43:01.300Z,101196.31
2023-03-15T09:45:37.108Z,101189.84
2023-03-15T09:48:10.650Z,101184.72
2023-03-15T09:50:43.578Z,101221.84
2023-03-15T09:53:17.319Z,101190.84
2023-03-15T09:55:49.793Z,101192.03
2023-03-15T09:58:22.451Z,101209.66
2023-03-15T10:00:54.618Z,101229.34
2023-03-15T10:03:32.016Z,101218.19
2023-03-15T10:06:03.825Z,101248.50
2023-03-15T10:08:31.667Z,101231.19
2023-03-15T10:11:09.850Z,101233.75
2023-03-15T10:13:58.881Z,101237.13
2023-03-15T10:16:35.909Z,101245.78
2023-03-15T10:19:16.177Z,101231.31
2023-03-15T10:21:53.178Z,101219.81
2023-03-15T10:24:24.365Z,101219.06
2023-03-15T10:26:54.981Z,101221.22
2023-03-15T10:29:26.382Z,101214.00
2023-03-15T10:31:55.953Z,101208.81
2023-03-15T10:34:26.156Z,101239.47
2023-03-15T10:36:55.481Z,101211.22
2023-03-15T10:39:24.472Z,101215.38
2023-03-15T10:41:53.611Z,101220.22
2023-03-15T10:44:24.288Z,101235.94
2023-03-15T10:47:06.953Z,101228.44
2023-03-15T10:49:42.095Z,101258.09
2023-03-15T10:52:28.610Z,101255.59
2023-03-15T10:55:03.965Z,101259.13
2023-03-15T10:57:36.690Z,101263.09
2023-03-15T11:00:17.271Z,101260.25
2023-03-15T11:02:51.260Z,101254.50
2023-03-15T11:05:21.492Z,101261.06
2023-03-15T11:07:57.421Z,101266.53
2023-03-15T11:10:27.951Z,101264.00
2023-03-15T11:13:15.194Z,101267.97
2023-03-15T11:15:53.810Z,101245.59
2023-03-15T11:18:27.797Z,101253.25
2023-03-15T11:20:57.415Z,101257.66
2023-03-15T11:23:28.159Z,101271.38
2023-03-15T11:25:57.108Z,101275.44
2023-03-15T11:28:29.154Z,101279.25
2023-03-15T11:31:00.766Z,101272.78
2023-03-15T11:33:42.369Z,101278.66
2023-03-15T11:36:16.782Z,101303.50
2023-03-15T11:38:46.514Z,101284.97
2023-03-15T11:41:28.570Z,101283.78
2023-03-15T11:44:04.904Z,101299.56
2023-03-15T11:46:35.612Z,101284.97
2023-03-15T11:49:12.153Z,101295.44
2023-03-15T11:51:41.018Z,101291.66
2023-03-15T11:54:15.017Z,101265.44
2023-03-15T11:56:49.384Z,101267.22
2023-03-15T11:59:20.300Z,101267.34
2023-03-15T12:01:50.268Z,101268.81
2023-03-15T12:04:46.628Z,101272.34
2023-03-15T12:07:47.052Z,101257.56
2023-03-15T12:10:45.164Z,101278.97
2023-03-15T12:13:23.821Z,101261.84
2023-03-15T12:15:53.937Z,101280.50
2023-03-15T12:18:27.095Z,101289.44
2023-03-15T12:21:08.404Z,101272.16
2023-03-15T12:23:41.491Z,101274.03
2023-03-15T12:26:15.338Z,101289.31
2023-03-15T12:28:51.745Z,101292.78
2023-03-15T12:31:21.491Z,101290.56
2023-03-15T12:33:52.333Z,101279.09
2023-03-15T12:36:31.513Z,101290.59
2023-03-15T12:39:20.812Z,101270.13
2023-03-15T12:41:50.360Z,101282.59
2023-03-15T12:44:39.487Z,101292.59
2023-03-15T12:47:10.202Z,101283.41
2023-03-15T12:49:41.202Z,101298.16
2023-03-15T12:52:30.095Z,101297.53
2023-03-15T12:55:04.770Z,101305.25
2023-03-15T12:57:39.989Z,101291.50
2023-03-15T13:00:15.620Z,101293.63
2023-03-15T13:02:50.127Z,101295.59
2023-03-15T13:05:22.020Z,101323.88
2023-03-15T13:07:56.705Z,101329.56
2023-03-15T13:10:38.547Z,101318.66
2023-03-15T13:13:26.793Z,101307.47
2023-03-15T13:16:09.189Z,101305.91
2023-03-15T13:18:49.649Z,101317.13
2023-03-15T13:21:25.614Z,101323.06
2023-03-15T13:23:57.239Z,101324.13
2023-03-15T13:26:36.891Z,101315.63
2023-03-15T13:29:14.225Z,101328.13
2023-03-15T13:31:42.329Z,101325.41
2023-03-15T13:34:17.164Z,101322.84
2023-03-15T13:36:47.084Z,101334.78
2023-03-15T13:39:23.188Z,101314.19
2023-03-15T13:41:57.352Z,101310.09
2023-03-15T13:44:26.790Z,101310.28
2023-03-15T13:46:55.334Z,101301.19
2023-03-15T13:49:25.117Z,101311.94
2023-03-15T13:51:54.871Z,101309.06
2023-03-15T13:54:27.572Z,101324.63
2023-03-15T13:57:00.046Z,101326.59
2023-03-15T13:59:33.745Z,101325.38
2023-03-15T14:02:03.538Z,101326.59
2023-03-15T14:04:38.073Z,101338.41
2023-03-15T14:07:26.573Z,101343.09
2023-03-15T14:10:22.116Z,101345.06
2023-03-15T14:12:50.395Z,101351.09
2023-03-15T14:15:20.609Z,101350.59
2023-03-15T14:18:00.745Z,101352.16
2023-03-15T14:20:33.604Z,101354.59
2023-03-15T14:23:03.207Z,101347.47
2023-03-15T14:25:36.215Z,101339.47
2023-03-15T14:28:04.891Z,101317.13
2023-03-15T14:30:35.684Z,101299.53
2023-03-15T14:33:07.499Z,101319.56
2023-03-15T14:35:46.083Z,101336.38
2023-03-15T14:38:19.977Z,101359.72
2023-03-15T14:40:48.440Z,101366.84
2023-03-15T14:43:16.425Z,101365.13
2023-03-15T14:45:46.639Z,101368.50
2023-03-15T14:48:20.030Z,101364.03
2023-03-15T14:50:49.207Z,101382.72
2023-03-15T14:53:20.044Z,101387.53
2023-03-15T14:55:48.226Z,101376.63
2023-03-15T14:58:17.376Z,101378.41
2023-03-15T15:00:48.524Z,101372.94
2023-03-15T15:03:22.119Z,101390.03
2023-03-15T15:05:51.388Z,101379.88
2023-03-15T15:08:22.232Z,101381.25
2023-03-15T15:10:51.855Z,101382.41
2023-03-15T15:13:21.860Z,101391.28
2023-03-15T15:15:55.556Z,101387.56
2023-03-15T15:18:24.897Z,101387.72
2023-03-15T15:20:55.949Z,101394.50
2023-03-15T15:23:27.059Z,101396.03
2023-03-15T15:25:57.386Z,101397.75
2023-03-15T15:28:34.556Z,101392.78
2023-03-15T15:31:08.531Z,101410.78
2023-03-15T15:33:37.295Z,101400.09
2023-03-15T15:36:13.410Z,101401.63
2023-03-15T15:38:42.066Z,101413.72
2023-03-15T15:41:15.804Z,101424.50
2023-03-15T15:43:44.502Z,101423.53
2023-03-15T15:46:13.380Z,101421.00
2023-03-15T15:48:41.776Z,101420.47
2023-03-15T15:51:25.751Z,101425.00
2023-03-15T15:53:54.753Z,101433.06
2023-03-15T15:56:33.995Z,101437.00
2023-03-15T15:59:04.439Z,101412.25
2023-03-15T16:01:33.394Z,101427.88
2023-03-15T16:04:02.240Z,101434.63
2023-03-15T16:06:32.606Z,101441.22
2023-03-15T16:09:00.769Z,101450.97
2023-03-15T16:11:29.199Z,101449.44
2023-03-15T16:13:56.898Z,101449.66
2023-03-15T16:16:24.954Z,101444.31
2023-03-15T16:18:52.627Z,101454.63
2023-03-15T16:21:28.524Z,101462.88
2023-03-15T16:24:04.600Z,101471.47
2023-03-15T16:26:32.625Z,101467.69
2023-03-15T16:29:00.330Z,101465.22
2023-03-15T16:31:28.107Z,101475.50
2023-03-15T16:33:56.127Z,101485.34
2023-03-15T16:36:25.315Z,101486.75
2023-03-15T16:38:53.018Z,101475.66
2023-03-15T16:41:22.072Z,101479.81
2023-03-15T16:43:49.761Z,101489.31
2023-03-15T16:46:18.257Z,101486.78
2023-03-15T16:48:46.063Z,101493.72
2023-03-15T16:51:16.521Z,101495.84
2023-03-15T16:53:45.545Z,101492.34
2023-03-15T16:56:14.910Z,101506.88
2023-03-15T16:58:45.134Z,101500.94
2023-03-15T17:01:12.874Z,101511.31
2023-03-15T17:03:40.582Z,101514.66
2023-03-15T17:06:17.329Z,101520.97
2023-03-15T17:08:45.251Z,101519.38
2023-03-15T17:11:13.464Z,101535.06
2023-03-15T17:13:42.268Z,101531.00
2023-03-15T17:16:13.285Z,101527.75
2023-03-15T17:18:43.010Z,101537.63
2023-03-15T17:21:12.975Z,101554.75
2023-03-15T17:23:40.741Z,101554.00
2023-03-15T17:26:12.760Z,101570.53
2023-03-15T17:28:41.535Z,101589.00
2023-03-15T17:31:24.567Z,101547.44
2023-03-15T17:33:53.234Z,101465.19
2023-03-15T17:36:23.737Z,101449.63
2023-03-15T17:38:52.233Z,101458.97
2023-03-15T17:41:22.649Z,101437.31
2023-03-15T17:43:51.721Z,101414.00
2023-03-15T17:46:28.166Z,101394.50
2023-03-15T17:48:56.966Z,101384.19
2023-03-15T17:51:27.560Z,101342.00
2023-03-15T17:53:55.818Z,101329.94
2023-03-15T17:56:23.785Z,101329.59
2023-03-15T17:58:52.501Z,101309.19
2023-03-15T18:01:24.072Z,101311.72
2023-03-15T18:03:52.409Z,101316.78
2023-03-15T18:06:21.775Z,101321.75
2023-03-15T18:08:49.917Z,101319.41
2023-03-15T18:11:23.536Z,101322.63
2023-03-15T18:13:51.519Z,101317.41
2023-03-15T18:16:19.550Z,101308.59
2023-03-15T18:18:48.873Z,101320.75
2023-03-15T18:21:18.868Z,101328.59
2023-03-15T18:23:46.935Z,101323.63
2023-03-15T18:26:14.753Z,101320.16
2023-03-15T18:28:42.519Z,101316.47
2023-03-15T18:31:14.146Z,101332.34
2023-03-15T18:33:42.065Z,101339.06
2023-03-15T18:36:11.776Z,101330.03
2023-03-15T18:38:40.311Z,101305.28
2023-03-15T18:41:15.122Z,101306.53
2023-03-15T18:43:49.399Z,101315.28
2023-03-15T18:46:19.603Z,101303.50
2023-03-15T18:48:48.050Z,101308.34
2023-03-15T18:51:18.334Z,101312.25
2023-03-15T18:53:46.417Z,101323.44
2023-03-15T18:56:19.215Z,101324.13
2023-03-15T18:58:47.357Z,101323.50
2023-03-15T19:01:15.601Z,101324.00
2023-03-15T19:03:43.676Z,101318.84
2023-03-15T19:06:13.501Z,101326.41
2023-03-15T19:08:42.918Z,101338.44
2023-03-15T19:11:17.070Z,101337.59
2023-03-15T19:13:50.768Z,101356.44
2023-03-15T19:16:19.014Z,101360.72
2023-03-15T19:18:46.766Z,101386.16
2023-03-15T19:21:14.583Z,101377.31
2023-03-15T19:23:46.765Z,101379.50
2023-03-15T19:26:14.800Z,101385.34
2023-03-15T19:28:42.684Z,101374.28
2023-03-15T19:31:11.334Z,101411.97
2023-03-15T19:33:39.385Z,101409.09
2023-03-15T19:36:08.294Z,101424.56
2023-03-15T19:38:36.121Z,101424.00
2023-03-15T19:41:06.624Z,101435.34
2023-03-15T19:43:37.809Z,101447.78
2023-03-15T19:46:07.960Z,101451.28
2023-03-15T19:48:35.854Z,101463.13
2023-03-15T19:51:04.516Z,101460.81
2023-03-15T19:53:32.539Z,101472.13
2023-03-15T19:56:00.292Z,101465.28
2023-03-15T19:58:29.377Z,101469.13
2023-03-15T20:00:57.160Z,101463.44
2023-03-15T20:03:25.638Z,101465.75
2023-03-15T20:05:53.374Z,101480.44
2023-03-15T20:08:21.261Z,101484.50
2023-03-15T20:10:49.499Z,101491.34
2023-03-15T20:13:17.268Z,101484.69
2023-03-15T20:15:46.921Z,101499.88
2023-03-15T20:18:16.078Z,101499.91
2023-03-15T20:20:44.223Z,101513.09
2023-03-15T20:23:11.938Z,101494.41
2023-03-15T20:25:39.661Z,101497.28
2023-03-15T20:28:07.359Z,101506.06
2023-03-15T20:30:35.428Z,101505.56
2023-03-15T20:33:04.619Z,101505.81
2023-03-15T20:35:32.334Z,101505.94
2023-03-15T20:38:06.522Z,101510.13
2023-03-15T20:40:35.008Z,101508.00
2023-03-15T20:43:02.895Z,101481.97
2023-03-15T20:45:31.906Z,101499.84
2023-03-15T20:47:59.670Z,101521.56
2023-03-15T20:50:28.837Z,101526.06
2023-03-15T20:52:56.540Z,101540.66
2023-03-15T20:55:24.617Z,101541.78
2023-03-15T20:57:53.505Z,101544.59
2023-03-15T21:00:22.724Z,101550.63
2023-03-15T21:02:50.959Z,101568.06
2023-03-15T21:05:18.909Z,101575.44
2023-03-15T21:07:47.995Z,101583.03
2023-03-15T21:10:15.723Z,101581.69
2023-03-15T21:12:44.891Z,101604.56
2023-03-15T21:15:17.414Z,101613.81
2023-03-15T21:17:45.713Z,101616.84
2023-03-15T21:20:15.529Z,101611.84
2023-03-15T21:22:43.507Z,101617.13
2023-03-15T21:25:13.312Z,101554.34
2023-03-15T21:27:41.082Z,101557.00
2023-03-15T21:30:10.467Z,101575.34
2023-03-15T21:32:38.361Z,101604.91
2023-03-15T21:35:07.088Z,101623.19
2023-03-15T21:37:34.993Z,101637.94
2023-03-15T21:40:02.781Z,101628.91
2023-03-15T21:42:31.861Z,101634.25
2023-03-15T21:44:59.547Z,101631.16
2023-03-15T21:47:27.597Z,101635.41
2023-03-15T21:49:55.337Z,101648.22
2023-03-15T21:52:26.188Z,101646.19
2023-03-15T21:54:53.974Z,101645.13
2023-03-15T21:57:22.673Z,101654.00
2023-03-15T21:59:51.805Z,101655.03
2023-03-15T22:02:19.758Z,101640.00
2023-03-15T22:04:47.535Z,101639.50
2023-03-15T22:07:15.289Z,101657.00
2023-03-15T22:09:43.363Z,101650.03
2023-03-15T22:12:12.933Z,101656.78
2023-03-15T22:14:42.019Z,101647.53
2023-03-15T22:17:11.215Z,101649.09
2023-03-15T22:19:38.937Z,101659.50
2023-03-15T22:22:06.759Z,101644.13
2023-03-15T22:24:34.886Z,101652.56
2023-03-15T22:27:02.898Z,101650.97
2023-03-15T22:29:30.845Z,101649.13
2023-03-15T22:31:58.793Z,101653.63
2023-03-15T22:34:28.726Z,101646.53
2023-03-15T22:36:56.500Z,101655.47
2023-03-15T22:39:24.211Z,101656.28
2023-03-15T22:41:51.954Z,101660.84
2023-03-15T22:44:19.636Z,101657.63
2023-03-15T22:46:47.570Z,101646.97
2023-03-15T22:49:15.280Z,101657.19
2023-03-15T22:51:44.367Z,101661.03
2023-03-15T22:54:12.070Z,101644.16
2023-03-15T22:56:41.044Z,101643.81
2023-03-15T22:59:08.857Z,101658.63
2023-03-15T23:01:36.609Z,101648.63
2023-03-15T23:04:04.705Z,101658.47
2023-03-15T23:06:32.464Z,101660.69
2023-03-15T23:09:01.558Z,101665.63
2023-03-15T23:11:29.313Z,101661.63
2023-03-15T23:13:57.016Z,101643.22
2023-03-15T23:16:24.940Z,101639.59
2023-03-15T23:18:52.687Z,101643.06
2023-03-15T23:21:20.533Z,101643.91
2023-03-15T23:23:48.241Z,101634.59
2023-03-15T23:26:19.469Z,101640.47
2023-03-15T23:28:47.724Z,101639.28
2023-03-15T23:31:15.526Z,101636.97
2023-03-15T23:33:46.955Z,101646.47
2023-03-15T23:36:15.067Z,101655.47
2023-03-15T23:38:42.807Z,101645.06
2023-03-15T23:41:10.492Z,101647.78
2023-03-15T23:43:39.739Z,101647.38
2023-03-15T23:46:07.689Z,101640.44
2023-03-15T23:48:37.041Z,101632.59
2023-03-15T23:51:05.810Z,101641.75
2023-03-15T23:53:33.704Z,101634.06
2023-03-15T23:56:01.749Z,101632.91
2023-03-15T23:58:29.551Z,101665.03
